Time,TemperatureF,DewpointF,PressureIn,WindDirection,WindDirectionDegrees,WindSpeedMPH,WindSpeedGustMPH,Humidity,HourlyPrecipIn,Conditions,Clouds,dailyrainin,SoftwareType,DateUTC
2013-03-07 00:04:00,-999.0,-99.9,30.11,North,-999,-999.0,-999.0,-999,-99.99,,,0.00,weatherlink.com 1.10,2013-03-07 05:04:00,
2013-03-07 00:19:00,-999.0,-99.9,30.12,North,-999,-999.0,-999.0,-999,-99.99,,,0.00,weatherlink.com 1.10,2013-03-07 05:19:00,
2013-03-07 00:34:00,-999.0,-99.9,30.12,North,-999,-999.0,-999.0,-999,-99.99,,,0.00,weatherlink.com 1.10,2013-03-07 05:34:00,
2013-03-07 00:49:00,-999.0,-99.9,30.12,North,-999,-999.0,-999.0,-999,-99.99,,,0.00,weatherlink.com 1.10,2013-03-07 05:49:00,
2013-03-07 01:04:00,-999.0,-99.9,30.12,North,-999,-999.0,-999.0,-999,-99.99,,,0.00,weatherlink.com 1.10,2013-03-07 06:04:00,
2013-03-07 01:18:00,-999.0,-99.9,30.13,North,-999,-999.0,-999.0,-999,-99.99,,,0.00,weatherlink.com 1.10,2013-03-07 06:18:00,
2013-03-07 01:34:00,-999.0,-99.9,30.13,North,-999,-999.0,-999.0,-999,-99.99,,,0.00,weatherlink.com 1.10,2013-03-07 06:34:00,
2013-03-07 01:49:00,-999.0,-99.9,30.13,North,-999,-999.0,-999.0,-999,-99.99,,,0.00,weatherlink.com 1.10,2013-03-07 06:49:00,
2013-03-07 02:04:00,-999.0,-99.9,30.13,North,-999,-999.0,-999.0,-999,-99.99,,,0.00,weatherlink.com 1.10,2013-03-07 07:04:00,
2013-03-07 02:19:00,-999.0,-99.9,30.13,North,-999,-999.0,-999.0,-999,-99.99,,,0.00,weatherlink.com 1.10,2013-03-07 07:19:00,
2013-03-07 02:34:00,-999.0,-99.9,30.13,North,-999,-999.0,-999.0,-999,-99.99,,,0.00,weatherlink.com 1.10,2013-03-07 07:34:00,
2013-03-07 03:04:00,-999.0,-99.9,30.13,North,-999,-999.0,-999.0,-999,-99.99,,,0.00,weatherlink.com 1.10,2013-03-07 08:04:00,
2013-03-07 03:19:00,-999.0,-99.9,30.13,North,-999,-999.0,-999.0,-999,-99.99,,,0.00,weatherlink.com 1.10,2013-03-07 08:19:00,
2013-03-07 03:33:00,-999.0,-99.9,30.13,North,-999,-999.0,-999.0,-999,-99.99,,,0.00,weatherlink.com 1.10,2013-03-07 08:33:00,
2013-03-07 03:49:00,-999.0,-99.9,30.14,North,-999,-999.0,-999.0,-999,-99.99,,,0.00,weatherlink.com 1.10,2013-03-07 08:49:00,
2013-03-07 04:19:00,-999.0,-99.9,30.14,North,-999,-999.0,-999.0,-999,-99.99,,,0.00,weatherlink.com 1.10,2013-03-07 09:19:00,
2013-03-07 04:34:00,-999.0,-99.9,30.14,North,-999,-999.0,-999.0,-999,-99.99,,,0.00,weatherlink.com 1.10,2013-03-07 09:34:00,
2013-03-07 04:48:00,-999.0,-99.9,30.14,North,-999,-999.0,-999.0,-999,-99.99,,,0.00,weatherlink.com 1.10,2013-03-07 09:48:00,
2013-03-07 05:04:00,-999.0,-99.9,30.14,North,-999,-999.0,-999.0,-999,-99.99,,,0.00,weatherlink.com 1.10,2013-03-07 10:04:00,
2013-03-07 05:19:00,-999.0,-99.9,30.14,North,-999,-999.0,-999.0,-999,-99.99,,,0.00,weatherlink.com 1.10,2013-03-07 10:19:00,
2013-03-07 05:34:00,-999.0,-99.9,30.14,North,-999,-999.0,-999.0,-999,-99.99,,,0.00,weatherlink.com 1.10,2013-03-07 10:34:00,
2013-03-07 05:49:00,-999.0,-99.9,30.13,North,-999,-999.0,-999.0,-999,-99.99,,,0.00,weatherlink.com 1.10,2013-03-07 10:49:00,
2013-03-07 06:04:00,-999.0,-99.9,30.14,North,-999,-999.0,-999.0,-999,-99.99,,,0.00,weatherlink.com 1.10,2013-03-07 11:04:00,
2013-03-07 06:19:00,-999.0,-99.9,30.14,North,-999,-999.0,-999.0,-999,-99.99,,,0.00,weatherlink.com 1.10,2013-03-07 11:19:00,
2013-03-07 06:34:00,-999.0,-99.9,30.14,North,-999,-999.0,-999.0,-999,-99.99,,,0.00,weatherlink.com 1.10,2013-03-07 11:34:00,
2013-03-07 06:50:00,-999.0,-99.9,30.14,North,-999,-999.0,-999.0,-999,-99.99,,,0.00,weatherlink.com 1.10,2013-03-07 11:50:00,
2013-03-07 07:04:00,-999.0,-99.9,30.15,North,-999,-999.0,-999.0,-999,-99.99,,,0.00,weatherlink.com 1.10,2013-03-07 12:04:00,
2013-03-07 07:19:00,-999.0,-99.9,30.15,North,-999,-999.0,-999.0,-999,-99.99,,,0.00,weatherlink.com 1.10,2013-03-07 12:19:00,
2013-03-07 07:34:00,-999.0,-99.9,30.15,North,-999,-999.0,-999.0,-999,-99.99,,,0.00,weatherlink.com 1.10,2013-03-07 12:34:00,
2013-03-07 07:49:00,-999.0,-99.9,30.16,North,-999,-999.0,-999.0,-999,-99.99,,,0.00,weatherlink.com 1.10,2013-03-07 12:49:00,
2013-03-07 08:04:00,-999.0,-99.9,30.16,North,-999,-999.0,-999.0,-999,-99.99,,,0.00,weatherlink.com 1.10,2013-03-07 13:04:00,
2013-03-07 08:19:00,-999.0,-99.9,30.17,North,-999,-999.0,-999.0,-999,-99.99,,,0.00,weatherlink.com 1.10,2013-03-07 13:19:00,
2013-03-07 08:34:00,-999.0,-99.9,30.17,North,-999,-999.0,-999.0,-999,-99.99,,,0.00,weatherlink.com 1.10,2013-03-07 13:34:00,
2013-03-07 08:49:00,-999.0,-99.9,30.17,North,-999,-999.0,-999.0,-999,-99.99,,,0.00,weatherlink.com 1.10,2013-03-07 13:49:00,
2013-03-07 09:04:00,38.4,27.0,30.17,NNW,336,0.0,-999.0,63,-99.99,,,0.00,weatherlink.com 1.10,2013-03-07 14:04:00,
2013-03-07 09:19:00,38.6,28.0,30.17,NW,324,0.0,-999.0,66,-99.99,,,0.00,weatherlink.com 1.10,2013-03-07 14:19:00,
2013-03-07 09:34:00,39.4,30.0,30.17,WNW,300,0.0,-999.0,68,-99.99,,,0.00,weatherlink.com 1.10,2013-03-07 14:34:00,
2013-03-07 09:49:00,39.3,30.0,30.18,WNW,287,1.0,-999.0,70,-99.99,,,0.00,weatherlink.com 1.10,2013-03-07 14:49:00,
2013-03-07 10:04:00,39.8,31.0,30.18,West,277,2.0,-999.0,71,-99.99,,,0.00,weatherlink.com 1.10,2013-03-07 15:04:00,
2013-03-07 10:19:00,39.7,31.0,30.18,WNW,287,2.0,-999.0,71,-99.99,,,0.00,weatherlink.com 1.10,2013-03-07 15:19:00,
2013-03-07 10:34:00,39.7,31.0,30.18,NW,307,0.0,-999.0,71,-99.99,,,0.00,weatherlink.com 1.10,2013-03-07 15:34:00,
2013-03-07 10:49:00,39.7,31.0,30.19,NW,307,0.0,-999.0,71,-99.99,,,0.00,weatherlink.com 1.10,2013-03-07 15:49:00,
2013-03-07 11:04:00,40.5,32.0,30.19,NW,323,4.0,-999.0,72,-99.99,,,0.00,weatherlink.com 1.10,2013-03-07 16:04:00,
2013-03-07 11:19:00,39.2,31.0,30.19,WSW,255,1.0,-999.0,71,-99.99,,,0.00,weatherlink.com 1.10,2013-03-07 16:19:00,
2013-03-07 11:34:00,38.7,30.0,30.20,NW,321,4.0,-999.0,71,-99.99,,,0.00,weatherlink.com 1.10,2013-03-07 16:34:00,
2013-03-07 11:49:00,38.8,30.0,30.20,NW,326,2.0,-999.0,71,-99.99,,,0.00,weatherlink.com 1.10,2013-03-07 16:49:00,
2013-03-07 12:04:00,38.3,30.0,30.20,NNW,335,0.0,-999.0,71,-99.99,,,0.00,weatherlink.com 1.10,2013-03-07 17:04:00,
2013-03-07 12:19:00,38.3,29.0,30.20,NW,308,3.0,-999.0,70,-99.99,,,0.00,weatherlink.com 1.10,2013-03-07 17:19:00,
2013-03-07 12:34:00,38.3,30.0,30.20,WNW,283,4.0,-999.0,71,-99.99,,,0.00,weatherlink.com 1.10,2013-03-07 17:34:00,
2013-03-07 12:49:00,38.9,31.0,30.19,West,280,0.0,-999.0,72,-99.99,,,0.00,weatherlink.com 1.10,2013-03-07 17:49:00,
2013-03-07 13:04:00,38.5,30.0,30.19,West,269,2.0,-999.0,71,-99.99,,,0.00,weatherlink.com 1.10,2013-03-07 18:04:00,
2013-03-07 13:19:00,38.0,29.0,30.19,WNW,297,0.0,-999.0,71,-99.99,,,0.00,weatherlink.com 1.10,2013-03-07 18:19:00,
2013-03-07 13:34:00,37.9,29.0,30.19,NW,325,2.0,-999.0,71,-99.99,,,0.00,weatherlink.com 1.10,2013-03-07 18:34:00,
2013-03-07 13:49:00,37.5,29.0,30.19,WNW,300,0.0,-999.0,71,-99.99,,,0.00,weatherlink.com 1.10,2013-03-07 18:49:00,
2013-03-07 14:04:00,37.2,29.0,30.20,NW,321,1.0,-999.0,71,-99.99,,,0.00,weatherlink.com 1.10,2013-03-07 19:04:00,
2013-03-07 14:19:00,37.2,29.0,30.20,NW,325,0.0,-999.0,71,-99.99,,,0.00,weatherlink.com 1.10,2013-03-07 19:19:00,
2013-03-07 14:34:00,37.1,28.0,30.20,NNW,327,6.0,-999.0,71,-99.99,,,0.00,weatherlink.com 1.10,2013-03-07 19:34:00,
2013-03-07 14:48:00,36.8,28.0,30.21,NNW,338,6.0,-999.0,71,-99.99,,,0.00,weatherlink.com 1.10,2013-03-07 19:48:00,
2013-03-07 15:04:00,37.0,28.0,30.21,WNW,298,1.0,-999.0,71,-99.99,,,0.00,weatherlink.com 1.10,2013-03-07 20:04:00,
2013-03-07 15:19:00,37.4,29.0,30.21,NNW,342,4.0,-999.0,72,-99.99,,,0.00,weatherlink.com 1.10,2013-03-07 20:19:00,
2013-03-07 15:34:00,38.0,30.0,30.21,WNW,300,2.0,-999.0,72,-99.99,,,0.00,weatherlink.com 1.10,2013-03-07 20:34:00,
2013-03-07 15:49:00,38.6,30.0,30.22,NNW,338,5.0,-999.0,72,-99.99,,,0.00,weatherlink.com 1.10,2013-03-07 20:49:00,
2013-03-07 16:04:00,37.5,29.0,30.22,WNW,298,0.0,-999.0,72,-99.99,,,0.00,weatherlink.com 1.10,2013-03-07 21:04:00,
2013-03-07 16:18:00,37.3,29.0,30.22,NNE,16,0.0,-999.0,72,-99.99,,,0.00,weatherlink.com 1.10,2013-03-07 21:18:00,
2013-03-07 16:34:00,36.9,29.0,30.22,NE,40,2.0,-999.0,72,-99.99,,,0.00,weatherlink.com 1.10,2013-03-07 21:34:00,
2013-03-07 16:49:00,36.4,29.0,30.22,NNW,333,0.0,-999.0,73,-99.99,,,0.00,weatherlink.com 1.10,2013-03-07 21:49:00,
2013-03-07 17:04:00,35.9,28.0,30.23,NE,39,0.0,-999.0,72,-99.99,,,0.00,weatherlink.com 1.10,2013-03-07 22:04:00,
2013-03-07 17:19:00,35.4,27.0,30.23,North,10,1.0,-999.0,72,-99.99,,,0.00,weatherlink.com 1.10,2013-03-07 22:19:00,
2013-03-07 17:34:00,35.2,27.0,30.24,NNE,22,0.0,-999.0,72,-99.99,,,0.00,weatherlink.com 1.10,2013-03-07 22:34:00,
2013-03-07 17:48:00,35.4,27.0,30.24,NNW,344,0.0,-999.0,72,-99.99,,,0.00,weatherlink.com 1.10,2013-03-07 22:48:00,
2013-03-07 18:04:00,35.7,27.0,30.25,NNW,344,0.0,-999.0,72,-99.99,,,0.00,weatherlink.com 1.10,2013-03-07 23:04:00,
2013-03-07 18:19:00,35.3,27.0,30.25,NNW,344,0.0,-999.0,72,-99.99,,,0.00,weatherlink.com 1.10,2013-03-07 23:19:00,
2013-03-07 18:34:00,35.3,27.0,30.25,NNW,340,0.0,-999.0,72,-99.99,,,0.00,weatherlink.com 1.10,2013-03-07 23:34:00,
2013-03-07 18:49:00,35.1,27.0,30.26,NNW,345,0.0,-999.0,73,-99.99,,,0.00,weatherlink.com 1.10,2013-03-07 23:49:00,
2013-03-07 19:04:00,34.4,27.0,30.26,WNW,292,1.0,-999.0,73,-99.99,,,0.00,weatherlink.com 1.10,2013-03-08 00:04:00,
2013-03-07 19:19:00,33.9,26.0,30.27,NNE,19,0.0,-999.0,73,-99.99,,,0.00,weatherlink.com 1.10,2013-03-08 00:19:00,
2013-03-07 19:34:00,33.5,25.0,30.26,NE,36,0.0,-999.0,72,-99.99,,,0.00,weatherlink.com 1.10,2013-03-08 00:34:00,
2013-03-07 20:04:00,-999.0,-99.9,30.26,North,-999,-999.0,-999.0,-999,-99.99,,,0.00,weatherlink.com 1.10,2013-03-08 01:04:00,
2013-03-07 20:19:00,-999.0,-99.9,30.26,North,-999,-999.0,-999.0,-999,-99.99,,,0.00,weatherlink.com 1.10,2013-03-08 01:19:00,
2013-03-07 20:34:00,-999.0,-99.9,30.26,North,-999,-999.0,-999.0,-999,-99.99,,,0.00,weatherlink.com 1.10,2013-03-08 01:34:00,
2013-03-07 20:48:00,-999.0,-99.9,30.27,North,-999,-999.0,-999.0,-999,-99.99,,,0.00,weatherlink.com 1.10,2013-03-08 01:48:00,
2013-03-07 21:04:00,-999.0,-99.9,30.27,North,-999,-999.0,-999.0,-999,-99.99,,,0.00,weatherlink.com 1.10,2013-03-08 02:04:00,
2013-03-07 21:18:00,-999.0,-99.9,30.27,North,-999,-999.0,-999.0,-999,-99.99,,,0.00,weatherlink.com 1.10,2013-03-08 02:18:00,
2013-03-07 21:34:00,-999.0,-99.9,30.26,North,-999,-999.0,-999.0,-999,-99.99,,,0.00,weatherlink.com 1.10,2013-03-08 02:34:00,
2013-03-07 21:49:00,-999.0,-99.9,30.26,North,-999,-999.0,-999.0,-999,-99.99,,,0.00,weatherlink.com 1.10,2013-03-08 02:49:00,
2013-03-07 22:03:00,-999.0,-99.9,30.26,North,-999,-999.0,-999.0,-999,-99.99,,,0.00,weatherlink.com 1.10,2013-03-08 03:03:00,
2013-03-07 22:19:00,-999.0,-99.9,30.26,North,-999,-999.0,-999.0,-999,-99.99,,,0.00,weatherlink.com 1.10,2013-03-08 03:19:00,
2013-03-07 22:48:00,-999.0,-99.9,30.26,North,-999,-999.0,-999.0,-999,-99.99,,,0.00,weatherlink.com 1.10,2013-03-08 03:48:00,
2013-03-07 23:04:00,-999.0,-99.9,30.26,North,-999,-999.0,-999.0,-999,-99.99,,,0.00,weatherlink.com 1.10,2013-03-08 04:04:00,
2013-03-07 23:18:00,-999.0,-99.9,30.25,North,-999,-999.0,-999.0,-999,-99.99,,,0.00,weatherlink.com 1.10,2013-03-08 04:18:00,
2013-03-07 23:34:00,-999.0,-99.9,30.25,North,-999,-999.0,-999.0,-999,-99.99,,,0.00,weatherlink.com 1.10,2013-03-08 04:34:00,
2013-03-07 23:48:00,-999.0,-99.9,30.25,North,-999,-999.0,-999.0,-999,-99.99,,,0.00,weatherlink.com 1.10,2013-03-08 04:48:00,